メインページ
METAR-TAF:

METAR-TAF

空港 :

ドバイ, アラブ首長国連邦

ドバイ国際空港

緯度: 25-15-10N, 経度: 055-21-52E, 海抜: 8m

現時点の気象観測

当レポートは35分前の15:00(UTC)に作成
西の風 7kt
気温 37°C
湿度 50%
気圧 998 hPa
視程10km以上
1,500メートル以下は雲なし、積乱雲なし

METAR: OMDB 251500Z 26007KT CAVOK 37/25 Q0998 NOSIG

時間: 19:35 (15:35 UTC)


TAF: 見つかりません

4,000以上の空港の気象観測と天気予報(METAR報とTAF報)

利用可能な観測所は地図上に黄色い丸と赤い丸で示す。

丸の上にカーソルを重ねると観測所名を参照できる。

次にクリックすると気象観測と天気予報を参照できる。

マップの切り替え:黒色「×」印の緑ボタンをクリックして拡大、「-」印の緑ボタンをクリックして縮小、緑色の三角印をクリックして隣りの地図に切り替え


METAR-TAF: